createdAt,value
2019-03-16T00:00:33.817Z,15.53
2019-03-16T00:02:59.843Z,9.93
2019-03-16T00:05:25.865Z,9.33
2019-03-16T00:07:52.124Z,9.27
2019-03-16T00:10:18.249Z,10.67
2019-03-16T00:12:44.399Z,11.93
2019-03-16T00:15:10.554Z,9.50
2019-03-16T00:17:36.873Z,11.80
2019-03-16T00:20:05.999Z,23.93
2019-03-16T00:22:32.069Z,9.13
2019-03-16T00:24:58.098Z,12.93
2019-03-16T00:27:24.214Z,14.13
2019-03-16T00:29:50.269Z,19.13
2019-03-16T00:32:16.382Z,12.13
2019-03-16T00:34:42.415Z,20.07
2019-03-16T00:37:08.780Z,15.70
2019-03-16T00:39:34.991Z,22.40
2019-03-16T00:42:01.115Z,20.20
2019-03-16T00:44:27.499Z,13.20
2019-03-16T00:46:54.008Z,15.23
2019-03-16T00:49:20.162Z,15.77
2019-03-16T00:51:46.732Z,21.53
2019-03-16T00:54:12.894Z,15.53
2019-03-16T00:56:39.883Z,14.23
2019-03-16T00:59:06.251Z,19.03
2019-03-16T01:01:32.502Z,15.80
2019-03-16T01:03:58.556Z,20.03
2019-03-16T01:06:25.120Z,23.10
2019-03-16T01:08:51.338Z,19.73
2019-03-16T01:11:17.380Z,18.30
2019-03-16T01:13:43.981Z,17.93
2019-03-16T01:16:10.112Z,12.10
2019-03-16T01:18:36.172Z,15.47
2019-03-16T01:21:02.312Z,18.87
2019-03-16T01:23:28.430Z,18.10
2019-03-16T01:25:54.621Z,16.83
2019-03-16T01:28:20.740Z,18.60
2019-03-16T01:30:46.975Z,11.43
2019-03-16T01:33:13.067Z,13.87
2019-03-16T01:35:39.326Z,17.13
2019-03-16T01:38:05.974Z,20.30
2019-03-16T01:40:32.032Z,13.47
2019-03-16T01:42:58.184Z,19.10
2019-03-16T01:45:24.385Z,19.93
2019-03-16T01:47:50.574Z,19.10
2019-03-16T01:50:16.737Z,17.20
2019-03-16T01:52:42.825Z,11.17
2019-03-16T01:55:08.985Z,18.80
2019-03-16T01:57:35.282Z,16.07
2019-03-16T02:00:03.288Z,11.93
2019-03-16T02:02:29.331Z,20.83
2019-03-16T02:04:55.707Z,23.67
2019-03-16T02:07:21.932Z,19.73
2019-03-16T02:09:48.098Z,20.57
2019-03-16T02:12:16.011Z,18.40
2019-03-16T02:14:42.094Z,20.40
2019-03-16T02:17:08.182Z,17.03
2019-03-16T02:19:54.143Z,16.50
2019-03-16T02:22:20.223Z,22.60
2019-03-16T02:24:46.286Z,33.07
2019-03-16T02:27:15.321Z,22.43
2019-03-16T02:29:41.361Z,16.03
2019-03-16T02:32:07.395Z,20.67
2019-03-16T02:34:33.444Z,25.37
2019-03-16T02:36:59.786Z,28.57
2019-03-16T02:39:25.844Z,19.57
2019-03-16T02:41:51.949Z,24.07
2019-03-16T02:44:18.123Z,23.70
2019-03-16T02:46:44.138Z,22.03
2019-03-16T02:49:10.179Z,19.40
2019-03-16T02:51:36.291Z,21.43
2019-03-16T02:54:02.446Z,17.13
2019-03-16T02:56:28.529Z,21.00
2019-03-16T02:58:54.638Z,14.00
2019-03-16T03:01:20.938Z,15.40
2019-03-16T03:03:47.027Z,15.43
2019-03-16T03:06:13.130Z,14.67
2019-03-16T03:08:39.261Z,17.20
2019-03-16T03:11:05.443Z,15.90
2019-03-16T03:13:31.538Z,18.47
2019-03-16T03:15:57.651Z,21.40
2019-03-16T03:18:23.772Z,13.87
2019-03-16T03:20:49.961Z,17.20
2019-03-16T03:23:16.216Z,17.67
2019-03-16T03:25:42.857Z,15.10
2019-03-16T03:28:09.002Z,13.33
2019-03-16T03:30:35.136Z,14.30
2019-03-16T03:33:01.313Z,19.43
2019-03-16T03:35:29.462Z,13.03
2019-03-16T03:37:55.355Z,18.53
2019-03-16T03:40:21.515Z,15.23
2019-03-16T03:42:47.639Z,11.50
2019-03-16T03:45:13.881Z,22.80
2019-03-16T03:47:40.073Z,14.07
2019-03-16T03:50:11.324Z,12.87
2019-03-16T03:52:37.763Z,18.23
2019-03-16T03:55:06.317Z,20.13
2019-03-16T03:57:32.467Z,16.93
2019-03-16T03:59:58.576Z,15.40
2019-03-16T04:02:24.633Z,19.30
2019-03-16T04:04:50.769Z,14.00
2019-03-16T04:07:20.191Z,15.43
2019-03-16T04:09:45.672Z,20.57
2019-03-16T04:12:12.086Z,15.60
2019-03-16T04:14:38.139Z,17.17
2019-03-16T04:17:04.257Z,20.40
2019-03-16T04:19:30.376Z,14.50
2019-03-16T04:21:56.414Z,16.90
2019-03-16T04:24:23.269Z,17.27
2019-03-16T04:26:49.431Z,20.93
2019-03-16T04:29:15.475Z,11.17
2019-03-16T04:31:41.686Z,15.30
2019-03-16T04:34:07.851Z,11.60
2019-03-16T04:36:33.926Z,14.13
2019-03-16T04:39:00.045Z,13.30
2019-03-16T04:41:26.200Z,22.80
2019-03-16T04:43:52.255Z,12.77
2019-03-16T04:46:18.280Z,22.13
2019-03-16T04:48:46.783Z,17.00
2019-03-16T04:51:12.857Z,16.77
2019-03-16T04:53:38.912Z,9.00
2019-03-16T04:56:05.033Z,12.63
2019-03-16T04:58:31.060Z,13.13
2019-03-16T05:00:57.099Z,17.57
2019-03-16T05:03:23.175Z,13.60
2019-03-16T05:05:49.350Z,22.93
2019-03-16T05:08:15.390Z,17.67
2019-03-16T05:10:41.447Z,23.90
2019-03-16T05:13:07.595Z,24.57
2019-03-16T05:15:36.653Z,22.63
2019-03-16T05:18:02.840Z,21.90
2019-03-16T05:20:28.981Z,19.30
2019-03-16T05:22:55.054Z,20.70
2019-03-16T05:25:21.547Z,21.00
2019-03-16T05:27:47.759Z,19.80
2019-03-16T05:30:13.909Z,17.47
2019-03-16T05:32:40.227Z,16.53
2019-03-16T05:35:06.949Z,16.93
2019-03-16T05:37:33.117Z,20.73
2019-03-16T05:39:59.249Z,17.00
2019-03-16T05:42:25.301Z,23.13
2019-03-16T05:44:51.475Z,22.20
2019-03-16T05:47:17.517Z,22.70
2019-03-16T05:49:43.592Z,19.60
2019-03-16T05:52:09.653Z,23.20
2019-03-16T05:54:35.817Z,17.70
2019-03-16T05:57:01.988Z,15.13
2019-03-16T05:59:28.249Z,24.30
2019-03-16T06:01:54.328Z,25.97
2019-03-16T06:04:20.459Z,25.30
2019-03-16T06:06:46.519Z,23.30
2019-03-16T06:09:12.603Z,18.40
2019-03-16T06:11:38.645Z,17.87
2019-03-16T06:14:04.803Z,19.83
2019-03-16T06:16:30.930Z,20.67
2019-03-16T06:18:57.327Z,20.70
2019-03-16T06:21:23.450Z,20.47
2019-03-16T06:23:49.638Z,31.27
2019-03-16T06:26:15.834Z,19.37
2019-03-16T06:28:41.971Z,21.00
2019-03-16T06:31:08.100Z,30.27
2019-03-16T06:33:34.490Z,17.07
2019-03-16T06:36:00.599Z,20.23
2019-03-16T06:38:26.952Z,24.10
2019-03-16T06:40:53.079Z,18.10
2019-03-16T06:43:19.199Z,23.20
2019-03-16T06:45:45.402Z,20.10
2019-03-16T06:48:11.517Z,21.67
2019-03-16T06:50:37.691Z,19.97
2019-03-16T06:53:03.874Z,22.20
2019-03-16T06:55:30.164Z,21.27
2019-03-16T06:57:56.266Z,20.57
2019-03-16T07:00:22.399Z,20.97
2019-03-16T07:02:48.515Z,19.70
2019-03-16T07:05:14.918Z,19.83
2019-03-16T07:07:41.078Z,24.50
2019-03-16T07:10:09.859Z,17.80
2019-03-16T07:12:35.940Z,18.57
2019-03-16T07:15:03.415Z,25.87
2019-03-16T07:17:29.473Z,19.97
2019-03-16T07:19:55.590Z,22.13
2019-03-16T07:22:21.738Z,30.90
2019-03-16T07:24:47.802Z,28.43
2019-03-16T07:27:25.738Z,27.93
2019-03-16T07:29:44.147Z,21.63
2019-03-16T07:32:10.192Z,22.70
2019-03-16T07:34:36.490Z,24.27
2019-03-16T07:37:02.593Z,23.27
2019-03-16T07:39:28.655Z,24.37
2019-03-16T07:41:54.809Z,20.07
2019-03-16T07:44:20.936Z,25.13
2019-03-16T07:46:46.994Z,21.80
2019-03-16T07:49:13.117Z,24.10
2019-03-16T07:51:39.238Z,20.87
2019-03-16T07:54:05.445Z,30.53
2019-03-16T07:56:31.838Z,27.20
2019-03-16T07:58:58.079Z,26.37
2019-03-16T08:01:24.199Z,20.90
2019-03-16T08:03:50.388Z,21.13
2019-03-16T08:06:16.684Z,28.30
2019-03-16T08:08:46.099Z,21.73
2019-03-16T08:11:12.271Z,27.23
2019-03-16T08:13:40.403Z,25.30
2019-03-16T08:16:06.812Z,26.83
2019-03-16T08:18:33.249Z,23.20
2019-03-16T08:20:59.723Z,27.93
2019-03-16T08:23:26.651Z,27.87
2019-03-16T08:25:52.956Z,27.10
2019-03-16T08:28:19.066Z,23.10
2019-03-16T08:30:47.024Z,30.90
2019-03-16T08:33:13.087Z,23.33
2019-03-16T08:35:39.138Z,19.53
2019-03-16T08:38:05.231Z,32.10
2019-03-16T08:40:31.260Z,17.57
2019-03-16T08:42:57.384Z,23.83
2019-03-16T08:45:23.437Z,20.87
2019-03-16T08:47:49.554Z,24.00
2019-03-16T08:50:15.627Z,28.00
2019-03-16T08:52:41.679Z,18.47
2019-03-16T08:55:09.153Z,24.50
2019-03-16T08:57:35.302Z,20.20
2019-03-16T09:02:39.628Z,21.83
2019-03-16T09:05:12.294Z,27.57
2019-03-16T09:07:38.787Z,19.10
2019-03-16T09:10:08.738Z,24.87
2019-03-16T09:12:34.831Z,17.83
2019-03-16T09:15:00.881Z,31.90
2019-03-16T09:17:26.947Z,24.80
2019-03-16T09:19:53.028Z,21.57
2019-03-16T09:22:19.467Z,18.07
2019-03-16T09:24:45.764Z,19.27
2019-03-16T09:27:11.786Z,23.07
2019-03-16T09:29:37.915Z,16.47
2019-03-16T09:32:04.305Z,24.13
2019-03-16T09:34:30.505Z,24.70
2019-03-16T09:36:56.860Z,18.97
2019-03-16T09:39:23.026Z,20.53
2019-03-16T09:41:49.504Z,15.90
2019-03-16T09:44:16.145Z,18.10
2019-03-16T09:46:42.267Z,15.37
2019-03-16T09:49:11.162Z,26.60
2019-03-16T09:51:37.425Z,20.03
2019-03-16T09:54:03.621Z,21.63
2019-03-16T09:56:29.801Z,16.60
2019-03-16T09:58:55.831Z,14.57
2019-03-16T10:01:21.951Z,18.50
2019-03-16T10:03:48.088Z,20.37
2019-03-16T10:06:14.155Z,20.43
2019-03-16T10:08:40.167Z,12.80
2019-03-16T10:11:06.252Z,17.33
2019-03-16T10:13:32.943Z,18.53
2019-03-16T10:15:59.745Z,21.23
2019-03-16T10:18:25.798Z,13.47
2019-03-16T10:20:51.853Z,24.63
2019-03-16T10:23:17.937Z,16.33
2019-03-16T10:25:44.061Z,16.40
2019-03-16T10:28:10.202Z,18.43
2019-03-16T10:30:36.198Z,14.77
2019-03-16T10:33:02.182Z,21.83
2019-03-16T10:35:28.226Z,16.80
2019-03-16T10:37:54.284Z,11.73
2019-03-16T10:40:20.384Z,13.00
2019-03-16T10:42:46.843Z,17.53
2019-03-16T10:45:12.983Z,19.30
2019-03-16T10:47:39.106Z,11.40
2019-03-16T10:50:11.059Z,16.50
2019-03-16T10:52:37.211Z,15.40
2019-03-16T10:55:05.582Z,15.43
2019-03-16T10:57:31.667Z,13.97
2019-03-16T11:02:51.403Z,12.63
2019-03-16T11:05:19.511Z,15.90
2019-03-16T11:07:45.765Z,10.67
2019-03-16T11:10:13.116Z,11.03
2019-03-16T11:12:39.264Z,16.00
2019-03-16T11:15:07.996Z,14.83
2019-03-16T11:17:34.179Z,18.27
2019-03-16T11:20:00.425Z,21.93
2019-03-16T11:22:26.669Z,16.90
2019-03-16T11:24:53.167Z,18.57
2019-03-16T11:27:19.398Z,22.00
2019-03-16T11:29:45.933Z,14.40
2019-03-16T11:32:13.322Z,13.70
2019-03-16T11:34:39.428Z,11.00
2019-03-16T11:37:05.529Z,15.93
2019-03-16T11:39:32.339Z,14.67
2019-03-16T11:41:58.824Z,11.07
2019-03-16T11:44:25.083Z,17.00
2019-03-16T11:46:51.280Z,11.27
2019-03-16T11:49:17.444Z,15.13
2019-03-16T11:51:43.607Z,17.17
2019-03-16T11:54:09.803Z,9.47
2019-03-16T11:56:36.298Z,11.83
2019-03-16T11:59:02.442Z,18.20
2019-03-16T12:01:28.596Z,14.87
2019-03-16T12:03:54.674Z,13.50
2019-03-16T12:06:20.692Z,10.60
2019-03-16T12:08:46.960Z,12.40
2019-03-16T12:11:13.202Z,18.00
2019-03-16T12:13:39.318Z,12.33
2019-03-16T12:16:05.489Z,21.30
2019-03-16T12:18:31.799Z,18.37
2019-03-16T12:20:57.935Z,20.40
2019-03-16T12:23:24.047Z,13.50
2019-03-16T12:25:52.425Z,15.80
2019-03-16T12:28:18.880Z,19.87
2019-03-16T12:30:44.919Z,14.03
2019-03-16T12:33:11.027Z,10.17
2019-03-16T12:35:37.229Z,9.93
2019-03-16T12:38:03.369Z,11.47
2019-03-16T12:40:29.430Z,7.13
2019-03-16T12:42:56.722Z,9.23
2019-03-16T12:45:23.094Z,4.23
2019-03-16T12:47:49.138Z,6.43
2019-03-16T12:50:15.276Z,10.43
2019-03-16T12:52:41.997Z,7.80
2019-03-16T12:55:09.392Z,9.17
2019-03-16T12:57:35.724Z,9.10
2019-03-16T13:00:04.993Z,7.50
2019-03-16T13:02:31.222Z,7.10
2019-03-16T13:04:57.344Z,5.17
2019-03-16T13:07:24.147Z,10.43
2019-03-16T13:09:50.474Z,7.90
2019-03-16T13:12:16.562Z,13.30
2019-03-16T13:14:42.824Z,9.83
2019-03-16T13:17:09.078Z,6.67
2019-03-16T13:19:35.343Z,5.60
2019-03-16T13:22:01.551Z,6.47
2019-03-16T13:24:27.716Z,7.83
2019-03-16T13:26:53.922Z,6.87
2019-03-16T13:29:20.117Z,5.70
2019-03-16T13:31:46.236Z,7.03
2019-03-16T13:34:12.580Z,4.30
2019-03-16T13:36:38.787Z,5.40
2019-03-16T13:39:05.317Z,7.53
2019-03-16T13:41:31.692Z,9.87
2019-03-16T13:43:57.938Z,19.23
2019-03-16T13:46:24.128Z,9.10
2019-03-16T13:48:50.211Z,9.83
2019-03-16T13:51:16.650Z,7.20
2019-03-16T13:53:43.056Z,11.73
2019-03-16T13:56:10.311Z,9.10
2019-03-16T13:58:36.502Z,7.27
2019-03-16T14:01:02.864Z,7.93
2019-03-16T14:03:29.025Z,12.40
2019-03-16T14:05:55.608Z,9.93
2019-03-16T14:08:21.752Z,5.60
2019-03-16T14:10:47.934Z,6.13
2019-03-16T14:13:14.300Z,6.97
2019-03-16T14:15:40.485Z,10.03
2019-03-16T14:18:06.643Z,9.87
2019-03-16T14:20:32.750Z,7.67
2019-03-16T14:22:59.318Z,3.70
2019-03-16T14:25:25.781Z,6.60
2019-03-16T14:27:51.972Z,7.80
2019-03-16T14:30:34.814Z,7.03
2019-03-16T14:32:47.412Z,8.97
2019-03-16T14:35:13.793Z,12.87
2019-03-16T14:37:40.286Z,5.93
2019-03-16T14:40:12.683Z,6.50
2019-03-16T14:42:46.333Z,10.67
2019-03-16T14:45:14.318Z,4.20
2019-03-16T14:47:40.547Z,5.67
2019-03-16T14:50:21.024Z,7.90
2019-03-16T14:52:47.241Z,6.57
2019-03-16T14:55:14.152Z,11.60
2019-03-16T14:57:40.250Z,3.60
2019-03-16T15:00:14.393Z,7.70
2019-03-16T15:02:40.911Z,4.33
2019-03-16T15:05:07.497Z,4.37
2019-03-16T15:07:33.510Z,4.00
2019-03-16T15:10:00.039Z,4.53
2019-03-16T15:12:30.057Z,4.73
2019-03-16T15:14:56.214Z,5.60
2019-03-16T15:17:25.246Z,4.97
2019-03-16T15:19:50.272Z,7.23
2019-03-16T15:22:16.473Z,8.60
2019-03-16T15:24:42.733Z,3.53
2019-03-16T15:27:08.940Z,4.77
2019-03-16T15:29:35.057Z,6.17
2019-03-16T15:32:01.250Z,4.33
2019-03-16T15:34:27.685Z,9.87
2019-03-16T15:36:53.862Z,5.23
2019-03-16T15:39:19.999Z,4.90
2019-03-16T15:41:48.054Z,6.53
2019-03-16T15:44:14.374Z,4.50
2019-03-16T15:46:40.774Z,3.53
2019-03-16T15:49:07.003Z,3.00
2019-03-16T15:51:33.029Z,6.37
2019-03-16T15:54:01.129Z,3.53
2019-03-16T15:56:27.809Z,10.00
2019-03-16T15:58:54.200Z,5.13
2019-03-16T16:01:20.551Z,7.37
2019-03-16T16:03:46.799Z,5.20
2019-03-16T16:06:12.813Z,6.43
2019-03-16T16:08:38.906Z,4.20
2019-03-16T16:11:05.375Z,5.77
2019-03-16T16:13:31.475Z,3.77
2019-03-16T16:15:57.507Z,6.70
2019-03-16T16:18:23.776Z,5.03
2019-03-16T16:20:49.922Z,5.93
2019-03-16T16:23:15.970Z,4.80
2019-03-16T16:25:42.021Z,4.70
2019-03-16T16:28:08.058Z,8.80
2019-03-16T16:30:34.178Z,7.57
2019-03-16T16:33:00.774Z,3.70
2019-03-16T16:35:26.797Z,5.37
2019-03-16T16:37:53.428Z,5.83
2019-03-16T16:40:19.982Z,4.70
2019-03-16T16:42:46.503Z,5.50
2019-03-16T16:45:13.683Z,4.67
2019-03-16T16:47:39.897Z,3.67
2019-03-16T16:50:15.635Z,4.43
2019-03-16T16:52:41.841Z,5.03
2019-03-16T16:55:08.601Z,2.90
2019-03-16T16:57:34.644Z,3.50
2019-03-16T17:00:00.776Z,4.63
2019-03-16T17:02:26.839Z,3.40
2019-03-16T17:04:53.186Z,4.20
2019-03-16T17:07:19.310Z,4.83
2019-03-16T17:09:45.413Z,3.27
2019-03-16T17:12:11.636Z,4.07
2019-03-16T17:14:37.822Z,5.37
2019-03-16T17:17:03.895Z,5.30
2019-03-16T17:19:29.959Z,3.77
2019-03-16T17:21:56.089Z,3.03
2019-03-16T17:24:22.483Z,5.43
2019-03-16T17:26:48.676Z,3.50
2019-03-16T17:29:14.697Z,4.57
2019-03-16T17:31:42.483Z,4.43
2019-03-16T17:34:08.826Z,3.40
2019-03-16T17:36:34.850Z,3.70
2019-03-16T17:39:01.174Z,2.97
2019-03-16T17:41:27.275Z,3.20
2019-03-16T17:43:53.373Z,2.97
2019-03-16T17:46:19.526Z,3.63
2019-03-16T17:48:45.585Z,5.17
2019-03-16T17:51:11.710Z,4.43
2019-03-16T17:53:37.831Z,3.43
2019-03-16T17:56:04.038Z,3.77
2019-03-16T17:58:30.182Z,3.47
2019-03-16T18:00:56.245Z,3.63
2019-03-16T18:03:22.647Z,4.03
2019-03-16T18:05:48.801Z,4.97
2019-03-16T18:08:14.906Z,5.80
2019-03-16T18:10:41.008Z,5.20
2019-03-16T18:13:11.236Z,4.60
2019-03-16T18:15:41.389Z,4.87
2019-03-16T18:18:07.527Z,5.70
2019-03-16T18:20:33.544Z,5.00
2019-03-16T18:23:02.096Z,5.50
2019-03-16T18:25:28.280Z,5.67
2019-03-16T18:27:54.465Z,6.10
2019-03-16T18:30:21.938Z,8.60
2019-03-16T18:32:48.170Z,7.73
2019-03-16T18:35:14.260Z,7.10
2019-03-16T18:37:40.561Z,8.77
2019-03-16T18:40:12.226Z,8.20
2019-03-16T18:42:38.389Z,8.13
2019-03-16T18:45:08.265Z,7.70
2019-03-16T18:47:34.784Z,10.53
2019-03-16T18:50:01.388Z,8.93
2019-03-16T18:52:27.636Z,8.83
2019-03-16T18:54:53.874Z,9.67
2019-03-16T18:57:20.057Z,9.40
2019-03-16T18:59:46.173Z,10.80
2019-03-16T19:02:20.677Z,10.97
2019-03-16T19:04:40.472Z,10.33
2019-03-16T19:07:06.507Z,10.53
2019-03-16T19:09:32.938Z,11.10
2019-03-16T19:11:59.007Z,10.30
2019-03-16T19:14:25.092Z,12.17
2019-03-16T19:16:51.511Z,14.80
2019-03-16T19:19:17.550Z,11.30
2019-03-16T19:21:43.908Z,12.20
2019-03-16T19:24:10.301Z,13.07
2019-03-16T19:26:36.305Z,12.17
2019-03-16T19:29:02.509Z,13.50
2019-03-16T19:31:28.525Z,13.87
2019-03-16T19:33:56.674Z,15.53
2019-03-16T19:36:22.868Z,17.30
2019-03-16T19:38:49.309Z,16.47
2019-03-16T19:41:15.320Z,16.30
2019-03-16T19:43:41.499Z,15.90
2019-03-16T19:46:07.673Z,17.40
2019-03-16T19:48:33.882Z,16.10
2019-03-16T19:51:04.094Z,16.90
2019-03-16T19:53:29.227Z,19.00
2019-03-16T19:55:55.401Z,19.63
2019-03-16T19:58:21.585Z,22.97
2019-03-16T20:00:49.599Z,20.03
2019-03-16T20:03:15.919Z,20.67
2019-03-16T20:05:41.940Z,18.93
2019-03-16T20:08:08.239Z,21.77
2019-03-16T20:10:34.918Z,24.73
2019-03-16T20:13:01.782Z,24.20
2019-03-16T20:15:28.288Z,20.60
2019-03-16T20:17:54.419Z,23.50
2019-03-16T20:20:20.738Z,20.40
2019-03-16T20:22:47.375Z,24.20
2019-03-16T20:25:13.611Z,26.70
2019-03-16T20:27:39.846Z,28.70
2019-03-16T20:30:13.260Z,27.60
2019-03-16T20:32:39.470Z,23.87
2019-03-16T20:35:07.317Z,25.50
2019-03-16T20:37:35.271Z,25.10
2019-03-16T20:40:01.853Z,29.00
2019-03-16T20:42:28.468Z,27.20
2019-03-16T20:44:54.689Z,37.27
2019-03-16T20:47:20.826Z,39.83
2019-03-16T20:49:47.083Z,23.90
2019-03-16T20:52:14.433Z,22.40
2019-03-16T20:54:40.651Z,23.33
2019-03-16T20:57:07.297Z,24.67
2019-03-16T20:59:33.401Z,22.60
2019-03-16T21:01:59.984Z,25.67
2019-03-16T21:04:26.182Z,20.50
2019-03-16T21:06:52.285Z,23.10
2019-03-16T21:09:18.472Z,23.30
2019-03-16T21:11:44.674Z,19.60
2019-03-16T21:14:10.911Z,19.70
2019-03-16T21:16:37.202Z,19.73
2019-03-16T21:19:04.595Z,19.00
2019-03-16T21:21:31.015Z,22.90
2019-03-16T21:23:57.461Z,19.27
2019-03-16T21:26:23.751Z,19.43
2019-03-16T21:28:50.084Z,19.90
2019-03-16T21:31:16.435Z,19.53
2019-03-16T21:33:45.687Z,18.03
2019-03-16T21:36:12.162Z,19.17
2019-03-16T21:38:38.783Z,17.97
2019-03-16T21:41:05.186Z,18.10
2019-03-16T21:43:37.498Z,17.00
2019-03-16T21:46:04.029Z,15.33
2019-03-16T21:48:31.498Z,17.27
2019-03-16T21:50:57.900Z,15.10
2019-03-16T21:53:25.878Z,17.43
2019-03-16T21:55:52.639Z,18.00
2019-03-16T21:58:19.986Z,16.60
2019-03-16T22:00:46.622Z,16.20
2019-03-16T22:03:13.072Z,16.40
2019-03-16T22:05:39.503Z,12.93
2019-03-16T22:08:08.465Z,16.73
2019-03-16T22:10:34.868Z,15.23
2019-03-16T22:13:01.147Z,12.23
2019-03-16T22:15:27.682Z,11.90
2019-03-16T22:17:54.042Z,14.00
2019-03-16T22:20:21.758Z,11.47
2019-03-16T22:22:49.373Z,11.00
2019-03-16T22:25:15.611Z,10.37
2019-03-16T22:27:42.089Z,10.97
2019-03-16T22:30:16.304Z,13.33
2019-03-16T22:32:43.167Z,9.50
2019-03-16T22:35:09.574Z,11.10
2019-03-16T22:37:35.994Z,12.80
2019-03-16T22:40:03.173Z,9.13
2019-03-16T22:42:29.458Z,12.93
2019-03-16T22:44:55.626Z,9.70
2019-03-16T22:47:25.667Z,12.13
2019-03-16T22:49:55.921Z,12.63
2019-03-16T22:52:22.103Z,10.40
2019-03-16T22:54:48.446Z,8.97
2019-03-16T22:57:14.554Z,8.03
2019-03-16T22:59:40.589Z,12.80
2019-03-16T23:02:14.402Z,8.83
2019-03-16T23:04:41.239Z,10.20
2019-03-16T23:07:09.503Z,7.37
2019-03-16T23:09:35.733Z,16.73
2019-03-16T23:12:01.891Z,12.07
2019-03-16T23:14:28.102Z,13.93
2019-03-16T23:16:54.224Z,8.00
2019-03-16T23:19:20.414Z,7.70
2019-03-16T23:21:47.088Z,11.90
2019-03-16T23:24:13.375Z,11.90
2019-03-16T23:26:39.515Z,8.50
2019-03-16T23:29:05.779Z,7.00
2019-03-16T23:31:32.106Z,10.23
2019-03-16T23:33:58.642Z,9.43
2019-03-16T23:36:24.765Z,6.97
2019-03-16T23:38:50.895Z,8.90
2019-03-16T23:41:17.454Z,9.30
2019-03-16T23:43:43.654Z,7.00
2019-03-16T23:46:09.777Z,6.93
2019-03-16T23:48:35.811Z,12.33
2019-03-16T23:51:02.035Z,6.53
2019-03-16T23:53:28.333Z,6.00
2019-03-16T23:55:54.511Z,11.90
2019-03-16T23:58:20.719Z,6.70
